Time;durP1;ratioP1;P1;durP2;ratioP2;P2;SDS_P1;SDS_P2;PMS_P1;PMS_P2;Temp;Humidity;BMP_temperature;BMP_pressure;BME280_temperature;BME280_humidity;BME280_pressure;Samples;Min_cycle;Max_cycle;Signal;HPM_P1;HPM_P2
2022/02/17 00:00:36;;;;;;;0.10;0.00;;;12.90;99.90;;;;;;10387796;28;20053;-63
2022/02/17 00:05:39;;;;;;;0.00;0.00;;;12.90;99.90;;;;;;10391306;28;20057;-64
2022/02/17 00:10:40;;;;;;;0.00;0.00;;;12.90;99.90;;;;;;10387844;28;20102;-63
2022/02/17 00:15:42;;;;;;;0.32;0.00;;;12.90;99.90;;;;;;10383826;28;20046;-63
2022/02/17 00:20:44;;;;;;;0.10;0.00;;;12.80;99.90;;;;;;10387492;28;20131;-63
2022/02/17 00:25:46;;;;;;;0.05;0.00;;;12.80;99.90;;;;;;10384410;28;20076;-63
2022/02/17 00:30:47;;;;;;;0.10;0.00;;;12.80;99.90;;;;;;10384301;28;20057;-63
2022/02/17 00:35:50;;;;;;;0.45;0.00;;;12.80;99.90;;;;;;10381664;28;20076;-62
2022/02/17 00:40:51;;;;;;;0.00;0.00;;;12.80;99.90;;;;;;10382508;28;20499;-63
2022/02/17 00:45:55;;;;;;;0.00;0.00;;;12.70;99.90;;;;;;10383828;28;20057;-63
2022/02/17 00:50:56;;;;;;;0.20;0.00;;;12.70;99.90;;;;;;10380139;28;20524;-63
2022/02/17 00:55:58;;;;;;;0.00;0.00;;;12.80;99.90;;;;;;10380818;28;20102;-63
2022/02/17 01:01:00;;;;;;;0.20;0.00;;;12.90;99.90;;;;;;10384216;28;20126;-64
2022/02/17 01:06:01;;;;;;;1.05;0.10;;;12.70;99.90;;;;;;10386583;28;20052;-64
2022/02/17 01:11:03;;;;;;;0.00;0.00;;;12.80;99.90;;;;;;10384729;28;20050;-63
2022/02/17 01:16:06;;;;;;;1.85;0.00;;;12.80;99.90;;;;;;10388250;28;20509;-63
2022/02/17 01:21:08;;;;;;;0.10;0.00;;;12.80;99.90;;;;;;10387495;28;20119;-64
2022/02/17 01:26:09;;;;;;;1.65;0.00;;;12.70;99.90;;;;;;10379593;28;20107;-64
2022/02/17 01:31:11;;;;;;;0.00;0.00;;;12.60;99.90;;;;;;10378122;28;20041;-65
2022/02/17 01:36:13;;;;;;;0.00;0.00;;;12.60;99.90;;;;;;10384514;28;20054;-65
2022/02/17 01:41:15;;;;;;;1.92;0.00;;;12.60;99.90;;;;;;10384937;28;20079;-64
2022/02/17 01:46:32;;;;;;;0.30;0.00;;;12.60;99.90;;;;;;10384631;28;20084;-65
2022/02/17 01:51:34;;;;;;;1.30;0.03;;;12.50;99.90;;;;;;10383156;28;20142;-63
2022/02/17 01:56:39;;;;;;;0.00;0.00;;;12.30;99.90;;;;;;10386877;28;20367;-64
2022/02/17 02:01:41;;;;;;;0.00;0.00;;;12.30;99.90;;;;;;10381145;28;20111;-63
2022/02/17 02:06:43;;;;;;;1.98;0.00;;;12.20;99.90;;;;;;10384194;28;20049;-62
2022/02/17 02:11:45;;;;;;;0.00;0.00;;;12.10;99.90;;;;;;10384324;28;20121;-62
2022/02/17 02:16:47;;;;;;;0.35;0.00;;;12.00;99.90;;;;;;10382402;28;20124;-62
2022/02/17 02:21:49;;;;;;;0.20;0.00;;;12.10;99.90;;;;;;10383609;28;20104;-62
2022/02/17 02:26:50;;;;;;;0.10;0.00;;;12.10;99.90;;;;;;10381685;28;20053;-62
2022/02/17 02:31:52;;;;;;;0.45;0.00;;;12.20;99.90;;;;;;10384997;28;20086;-63
2022/02/17 02:36:54;;;;;;;0.00;0.00;;;12.10;99.90;;;;;;10382253;28;20493;-63
2022/02/17 02:41:55;;;;;;;0.45;0.00;;;12.20;99.90;;;;;;10385493;28;20130;-63
2022/02/17 02:46:57;;;;;;;0.00;0.00;;;12.20;99.90;;;;;;10381307;28;20694;-63
2022/02/17 02:51:59;;;;;;;0.00;0.00;;;12.40;99.90;;;;;;10378382;28;20111;-63
2022/02/17 02:57:00;;;;;;;0.22;0.00;;;12.80;99.90;;;;;;10384666;28;20644;-63
2022/02/17 03:02:02;;;;;;;0.10;0.00;;;12.90;99.90;;;;;;10382273;28;20056;-62
2022/02/17 03:07:04;;;;;;;0.00;0.00;;;12.80;99.90;;;;;;10376349;28;20042;-62
2022/02/17 03:12:06;;;;;;;0.20;0.00;;;12.80;99.90;;;;;;10377571;28;20049;-62
2022/02/17 03:17:09;;;;;;;0.13;0.00;;;12.70;99.90;;;;;;10379129;28;20049;-62
2022/02/17 03:22:10;;;;;;;0.28;0.10;;;12.50;99.90;;;;;;10386267;28;20496;-61
2022/02/17 03:27:12;;;;;;;1.38;0.03;;;12.50;99.90;;;;;;10389357;28;20045;-62
2022/02/17 03:32:14;;;;;;;1.77;0.10;;;12.60;96.70;;;;;;10381692;28;20042;-62
2022/02/17 03:37:15;;;;;;;2.03;0.10;;;12.50;92.40;;;;;;10390287;28;20065;-62
2022/02/17 03:42:17;;;;;;;1.13;0.10;;;12.60;84.80;;;;;;10382618;28;20521;-63
2022/02/17 03:47:19;;;;;;;1.80;0.10;;;12.50;82.70;;;;;;10386228;28;20111;-62
2022/02/17 03:52:20;;;;;;;2.03;0.52;;;12.70;77.50;;;;;;10387385;28;20056;-63
2022/02/17 03:57:22;;;;;;;0.10;0.00;;;12.50;80.50;;;;;;10391992;28;20126;-63
2022/02/17 04:02:25;;;;;;;1.88;0.00;;;12.50;80.40;;;;;;10386768;28;20568;-67
2022/02/17 04:07:26;;;;;;;0.65;0.20;;;12.50;77.60;;;;;;10388809;28;20484;-64
2022/02/17 04:12:29;;;;;;;1.00;0.10;;;12.40;79.80;;;;;;10390225;28;20532;-64
2022/02/17 04:17:31;;;;;;;2.42;0.30;;;12.50;73.00;;;;;;10384436;28;20120;-64
2022/02/17 04:22:33;;;;;;;6.43;0.57;;;12.40;68.30;;;;;;10387839;28;20443;-64
2022/02/17 04:27:36;;;;;;;3.13;1.15;;;12.30;68.50;;;;;;10388118;28;20045;-64
2022/02/17 04:32:39;;;;;;;3.00;0.40;;;12.20;68.00;;;;;;10390476;28;20379;-64
2022/02/17 04:37:40;;;;;;;4.68;0.40;;;12.20;66.50;;;;;;10384457;28;20584;-63
2022/02/17 04:42:42;;;;;;;4.38;0.30;;;12.20;66.00;;;;;;10389130;28;20099;-64
2022/02/17 04:47:44;;;;;;;7.10;0.90;;;12.00;67.00;;;;;;10384682;28;20045;-64
2022/02/17 04:52:45;;;;;;;5.20;0.30;;;12.00;68.70;;;;;;10373029;28;20562;-64
2022/02/17 04:57:47;;;;;;;4.80;0.57;;;11.90;69.50;;;;;;10384137;28;20866;-63
2022/02/17 05:02:49;;;;;;;7.65;0.40;;;11.90;69.40;;;;;;10382192;28;20073;-63
2022/02/17 05:07:50;;;;;;;8.07;1.40;;;11.80;70.00;;;;;;10388458;28;20076;-63
2022/02/17 05:12:52;;;;;;;7.03;0.40;;;11.70;69.50;;;;;;10381697;28;20080;-63
2022/02/17 05:17:54;;;;;;;6.55;0.55;;;11.70;70.10;;;;;;10382302;28;20087;-65
2022/02/17 05:22:56;;;;;;;4.53;0.73;;;11.60;69.30;;;;;;10380492;28;20054;-64
2022/02/17 05:27:57;;;;;;;8.18;0.60;;;11.60;67.90;;;;;;10379912;28;20060;-64
2022/02/17 05:32:59;;;;;;;8.32;0.68;;;11.50;68.30;;;;;;10377737;28;20149;-65
2022/02/17 05:38:01;;;;;;;4.32;0.55;;;11.50;68.80;;;;;;10381921;28;20102;-64
2022/02/17 05:43:07;;;;;;;11.32;0.73;;;11.50;67.70;;;;;;10375055;28;20390;-64
2022/02/17 05:48:09;;;;;;;6.57;0.55;;;11.40;68.40;;;;;;10383727;28;20076;-64
2022/02/17 05:53:10;;;;;;;7.60;0.50;;;11.40;68.70;;;;;;10385450;28;20037;-64
2022/02/17 05:58:13;;;;;;;8.30;0.70;;;11.30;69.70;;;;;;10381981;28;20100;-64
2022/02/17 06:03:14;;;;;;;9.27;0.50;;;11.40;69.60;;;;;;10378367;28;21034;-64
2022/02/17 06:08:16;;;;;;;7.28;0.70;;;11.40;69.40;;;;;;10378001;28;20072;-64
2022/02/17 06:13:18;;;;;;;9.63;0.95;;;11.40;69.80;;;;;;10381984;28;20115;-64
2022/02/17 06:18:19;;;;;;;7.43;0.75;;;11.30;70.80;;;;;;10379605;28;20111;-64
2022/02/17 06:23:22;;;;;;;9.55;0.77;;;11.10;73.20;;;;;;10385581;28;20111;-66
2022/02/17 06:28:25;;;;;;;13.40;1.85;;;11.00;73.00;;;;;;10383786;28;20053;-65
2022/02/17 06:33:28;;;;;;;13.35;0.80;;;11.00;72.40;;;;;;10378149;28;20124;-66
2022/02/17 06:38:32;;;;;;;6.68;1.10;;;10.90;73.00;;;;;;10386981;28;20095;-65
2022/02/17 06:43:36;;;;;;;8.95;0.95;;;10.90;73.30;;;;;;10389397;28;20127;-65
2022/02/17 06:48:40;;;;;;;8.30;0.90;;;10.80;74.30;;;;;;10382461;28;20045;-65
2022/02/17 06:53:42;;;;;;;12.23;1.63;;;10.70;74.20;;;;;;10382268;28;20493;-65
2022/02/17 06:58:46;;;;;;;9.43;1.60;;;10.80;73.70;;;;;;10395789;28;20076;-64
2022/02/17 07:03:47;;;;;;;10.23;1.25;;;10.60;76.50;;;;;;10385860;28;20069;-65
2022/02/17 07:08:49;;;;;;;7.65;0.88;;;10.60;75.80;;;;;;10386424;28;20049;-65
2022/02/17 07:13:51;;;;;;;13.15;1.05;;;10.50;77.60;;;;;;10391120;28;20049;-66
2022/02/17 07:18:53;;;;;;;11.85;1.13;;;10.30;80.70;;;;;;10390121;28;20053;-66
2022/02/17 07:23:54;;;;;;;11.02;1.30;;;10.10;81.90;;;;;;10388515;28;20081;-65
2022/02/17 07:28:56;;;;;;;10.15;1.17;;;10.10;81.50;;;;;;10391172;28;20095;-65
2022/02/17 07:33:58;;;;;;;8.82;1.85;;;10.00;82.60;;;;;;10387843;28;20111;-66
2022/02/17 07:38:59;;;;;;;11.55;1.30;;;10.00;83.00;;;;;;10387113;28;20073;-65
2022/02/17 07:44:01;;;;;;;10.82;1.55;;;10.00;82.80;;;;;;10389817;28;20048;-65
2022/02/17 07:49:04;;;;;;;9.63;1.48;;;10.10;80.40;;;;;;10387909;28;20113;-66
2022/02/17 07:54:05;;;;;;;11.50;1.23;;;10.20;80.10;;;;;;10390077;28;20139;-66
2022/02/17 07:59:07;;;;;;;10.93;0.70;;;10.10;80.60;;;;;;10386900;28;20077;-65
2022/02/17 08:04:09;;;;;;;10.70;0.70;;;10.10;82.40;;;;;;10389410;28;20574;-65
2022/02/17 08:09:10;;;;;;;10.38;0.70;;;10.20;80.50;;;;;;10389372;28;20056;-65
2022/02/17 08:14:12;;;;;;;9.43;1.13;;;10.40;78.00;;;;;;10383528;28;20399;-65
2022/02/17 08:19:14;;;;;;;13.20;0.93;;;10.50;76.10;;;;;;10386778;28;20041;-65
2022/02/17 08:24:17;;;;;;;11.27;1.25;;;10.50;76.20;;;;;;10383452;28;20129;-65
2022/02/17 08:29:19;;;;;;;10.00;1.13;;;10.50;78.10;;;;;;10386921;28;20436;-65
2022/02/17 08:34:21;;;;;;;7.65;0.90;;;10.50;79.80;;;;;;10395300;28;20049;-65
2022/02/17 08:39:23;;;;;;;13.68;1.13;;;10.60;76.50;;;;;;10385625;28;20553;-65
2022/02/17 08:44:24;;;;;;;14.93;0.95;;;10.80;73.00;;;;;;10384407;28;20060;-65
2022/02/17 08:49:26;;;;;;;10.35;1.25;;;10.90;73.70;;;;;;10379709;28;20041;-66
2022/02/17 08:54:28;;;;;;;11.52;0.82;;;10.90;74.00;;;;;;10378734;28;20445;-65
2022/02/17 08:59:30;;;;;;;15.07;1.10;;;11.00;72.00;;;;;;10388200;28;20546;-65
2022/02/17 09:04:32;;;;;;;7.68;0.60;;;11.10;71.90;;;;;;10389452;28;20044;-65
2022/02/17 09:09:34;;;;;;;4.72;1.50;;;11.10;70.30;;;;;;10386090;28;20057;-66
2022/02/17 09:14:35;;;;;;;9.50;1.10;;;11.30;65.40;;;;;;10378767;28;20373;-65
2022/02/17 09:19:38;;;;;;;10.98;1.05;;;11.30;66.80;;;;;;10387635;28;20041;-65
2022/02/17 09:24:39;;;;;;;7.30;0.88;;;11.40;66.00;;;;;;10383143;28;20132;-65
2022/02/17 09:29:44;;;;;;;13.27;1.95;;;11.40;66.40;;;;;;10380822;28;20045;-66
2022/02/17 09:34:57;;;;;;;11.23;0.68;;;11.50;65.60;;;;;;10385545;28;20048;-64
2022/02/17 09:39:59;;;;;;;10.32;1.08;;;11.60;64.80;;;;;;10387645;28;20052;-64
2022/02/17 09:45:01;;;;;;;12.45;0.93;;;11.60;63.10;;;;;;10389396;28;20056;-64
2022/02/17 09:50:06;;;;;;;10.48;0.77;;;11.60;63.90;;;;;;10389915;28;20057;-64
2022/02/17 09:55:12;;;;;;;12.05;0.80;;;11.70;62.80;;;;;;10382950;28;20102;-65
2022/02/17 10:00:14;;;;;;;9.70;1.08;;;11.70;62.90;;;;;;10385685;28;20110;-65
2022/02/17 10:05:16;;;;;;;7.82;0.98;;;11.60;62.10;;;;;;10381981;28;20095;-64
2022/02/17 10:10:22;;;;;;;14.07;0.80;;;11.70;61.50;;;;;;10380172;28;20049;-65
2022/02/17 10:15:29;;;;;;;11.27;0.98;;;11.80;61.00;;;;;;10382179;28;20049;-65
2022/02/17 10:20:57;;;;;;;9.18;0.65;;;12.00;61.20;;;;;;10382706;28;20099;-65
2022/02/17 10:26:04;;;;;;;7.65;0.70;;;12.10;62.00;;;;;;10384203;28;20378;-65
2022/02/17 10:31:07;;;;;;;6.60;0.75;;;12.20;62.40;;;;;;10383243;28;20079;-65
2022/02/17 10:36:10;;;;;;;10.82;1.02;;;12.10;61.20;;;;;;10388051;28;20049;-64
2022/02/17 10:41:12;;;;;;;7.25;0.70;;;11.80;64.80;;;;;;10387122;28;20081;-64
2022/02/17 10:46:14;;;;;;;5.20;0.90;;;12.00;62.50;;;;;;10392725;28;20067;-65
2022/02/17 10:51:17;;;;;;;5.20;1.17;;;12.00;60.20;;;;;;10388051;28;20065;-65
2022/02/17 10:56:23;;;;;;;9.10;0.80;;;12.20;59.30;;;;;;10392621;28;20045;-65
2022/02/17 11:01:25;;;;;;;10.77;0.77;;;12.30;59.90;;;;;;10387576;28;20056;-64
2022/02/17 11:06:30;;;;;;;11.85;1.20;;;12.40;60.70;;;;;;10385791;28;20519;-65
2022/02/17 11:11:32;;;;;;;7.40;1.45;;;12.50;56.70;;;;;;10387361;28;20480;-64
2022/02/17 11:16:35;;;;;;;9.23;0.68;;;12.70;58.50;;;;;;10387480;28;20041;-65
2022/02/17 11:21:40;;;;;;;7.80;0.52;;;12.60;57.80;;;;;;10394590;28;20081;-64
2022/02/17 11:26:42;;;;;;;4.40;0.40;;;12.40;55.70;;;;;;10391428;28;20080;-65
2022/02/17 11:31:58;;;;;;;5.80;0.60;;;12.50;55.90;;;;;;10396678;28;20565;-65
2022/02/17 11:37:00;;;;;;;5.13;0.63;;;12.40;54.30;;;;;;10387612;28;20046;-65
2022/02/17 11:42:01;;;;;;;8.80;0.60;;;12.40;55.70;;;;;;10390052;28;20067;-65
2022/02/17 11:47:05;;;;;;;4.60;0.70;;;12.60;57.10;;;;;;10389045;28;20515;-64
2022/02/17 11:52:18;;;;;;;5.43;1.27;;;12.40;56.90;;;;;;10388135;28;20453;-64
2022/02/17 11:57:34;;;;;;;8.10;0.88;;;12.20;54.90;;;;;;10389385;28;20053;-64
2022/02/17 12:02:43;;;;;;;6.50;0.50;;;12.00;54.60;;;;;;10385084;28;20045;-64
2022/02/17 12:07:45;;;;;;;8.00;0.40;;;11.50;62.00;;;;;;10391850;28;20045;-63
2022/02/17 12:12:47;;;;;;;9.32;0.60;;;11.20;64.80;;;;;;10388803;28;20053;-64
2022/02/17 12:17:50;;;;;;;6.55;0.60;;;11.30;64.10;;;;;;10386502;28;20049;-64
2022/02/17 12:23:06;;;;;;;11.82;1.60;;;11.50;63.10;;;;;;10383596;28;20472;-64
2022/02/17 12:28:10;;;;;;;10.30;1.17;;;11.60;63.40;;;;;;10384337;28;20465;-63
2022/02/17 12:33:16;;;;;;;10.45;0.60;;;11.60;63.80;;;;;;10384651;28;20504;-63
2022/02/17 12:38:22;;;;;;;8.68;0.70;;;11.50;63.10;;;;;;10383094;28;20046;-63
2022/02/17 12:43:55;;;;;;;7.40;0.75;;;11.50;63.30;;;;;;10380618;28;20081;-63
2022/02/17 12:49:05;;;;;;;3.65;0.70;;;11.50;61.70;;;;;;10350854;28;20057;-63
2022/02/17 12:54:08;;;;;;;13.05;1.33;;;11.60;60.70;;;;;;10381106;28;20057;-63
2022/02/17 12:59:14;;;;;;;6.30;0.93;;;11.40;65.40;;;;;;10389570;28;20408;-63
2022/02/17 13:04:17;;;;;;;17.02;1.15;;;10.50;74.90;;;;;;10241046;28;20061;-64
2022/02/17 13:09:21;;;;;;;8.68;0.98;;;9.60;85.50;;;;;;10382243;28;20042;-63
2022/02/17 13:14:30;;;;;;;6.18;0.47;;;9.30;91.50;;;;;;10386383;28;20045;-64
2022/02/17 13:19:38;;;;;;;4.43;0.52;;;9.00;93.80;;;;;;10383775;28;20516;-63
2022/02/17 13:25:00;;;;;;;7.07;0.55;;;9.00;91.10;;;;;;10382580;28;20134;-63
2022/02/17 13:30:11;;;;;;;4.90;0.30;;;9.20;90.80;;;;;;10399281;28;20409;-63
2022/02/17 13:35:15;;;;;;;6.40;0.20;;;9.60;86.70;;;;;;10380636;28;20037;-63
2022/02/17 13:40:26;;;;;;;3.33;0.40;;;9.90;83.80;;;;;;10398432;28;20045;-63
2022/02/17 13:45:30;;;;;;;3.88;0.30;;;10.10;81.70;;;;;;10380027;28;20053;-63
2022/02/17 13:50:33;;;;;;;3.33;0.55;;;10.20;80.30;;;;;;10382651;28;20069;-63
2022/02/17 13:55:40;;;;;;;3.10;0.82;;;10.40;78.70;;;;;;10373794;28;20111;-63
2022/02/17 14:00:43;;;;;;;2.75;0.20;;;10.60;76.00;;;;;;10379757;28;20053;-63
2022/02/17 14:05:45;;;;;;;2.85;0.20;;;10.70;75.80;;;;;;10381670;28;20496;-64
2022/02/17 14:10:47;;;;;;;3.67;0.40;;;10.70;74.40;;;;;;10378341;28;20065;-63
2022/02/17 14:15:52;;;;;;;2.88;0.20;;;10.70;74.70;;;;;;10382636;28;20049;-64
2022/02/17 14:20:54;;;;;;;6.30;0.30;;;10.80;75.10;;;;;;10387791;28;20045;-63
2022/02/17 14:25:56;;;;;;;5.28;0.52;;;10.90;73.50;;;;;;10383317;28;20783;-63
2022/02/17 14:30:58;;;;;;;3.90;0.40;;;11.10;72.70;;;;;;10382611;28;20136;-64
2022/02/17 14:36:00;;;;;;;7.28;0.38;;;11.10;71.80;;;;;;10379825;28;20049;-63
2022/02/17 14:41:01;;;;;;;6.88;0.47;;;11.30;70.80;;;;;;10380363;28;20061;-64
2022/02/17 14:46:03;;;;;;;7.00;0.50;;;11.20;71.50;;;;;;10385548;28;20527;-64
2022/02/17 14:51:05;;;;;;;6.97;0.30;;;11.40;70.20;;;;;;10388976;28;20111;-64
2022/02/17 14:56:06;;;;;;;2.88;0.20;;;11.20;74.10;;;;;;10385486;28;20122;-64
2022/02/17 15:01:08;;;;;;;4.07;0.50;;;10.70;76.20;;;;;;10379234;28;20061;-64
2022/02/17 15:06:10;;;;;;;2.30;0.38;;;10.80;80.80;;;;;;10384814;28;20566;-64
2022/02/17 15:11:11;;;;;;;1.75;0.20;;;10.30;85.50;;;;;;10373485;28;20111;-63
2022/02/17 15:16:13;;;;;;;2.85;0.25;;;9.70;86.50;;;;;;10379368;28;20069;-64
2022/02/17 15:21:15;;;;;;;5.50;0.30;;;9.30;85.50;;;;;;10389481;28;20069;-64
2022/02/17 15:26:17;;;;;;;3.30;0.22;;;9.10;85.80;;;;;;10388392;28;20045;-64
2022/02/17 15:31:18;;;;;;;8.50;0.55;;;8.80;87.00;;;;;;10389412;28;20079;-64
2022/02/17 15:36:20;;;;;;;4.35;0.38;;;8.80;88.00;;;;;;10400151;28;20058;-64
2022/02/17 15:41:22;;;;;;;5.03;0.57;;;8.90;90.10;;;;;;10386789;28;20548;-64
2022/02/17 15:46:24;;;;;;;2.65;0.30;;;9.00;88.40;;;;;;10380086;28;20049;-66
2022/02/17 15:51:26;;;;;;;9.18;0.80;;;9.10;87.00;;;;;;10393911;28;20627;-65
2022/02/17 15:56:27;;;;;;;5.25;0.52;;;9.40;84.30;;;;;;10385262;28;20053;-65
2022/02/17 16:01:29;;;;;;;9.52;0.65;;;9.60;81.40;;;;;;10380611;28;20061;-64
2022/02/17 16:06:51;;;;;;;8.52;0.68;;;9.90;78.80;;;;;;10379646;28;20423;-64
2022/02/17 16:11:53;;;;;;;7.78;0.60;;;10.10;75.50;;;;;;10383272;28;20033;-64
2022/02/17 16:16:55;;;;;;;3.90;0.40;;;10.30;71.80;;;;;;10379612;28;20044;-64
2022/02/17 16:21:57;;;;;;;4.43;0.32;;;10.30;70.50;;;;;;10377515;28;20126;-64
2022/02/17 16:26:58;;;;;;;4.13;0.93;;;10.40;69.20;;;;;;10382585;28;20100;-62
2022/02/17 16:32:01;;;;;;;4.28;0.40;;;10.30;69.50;;;;;;10383166;28;20053;-63
2022/02/17 16:37:03;;;;;;;3.17;0.70;;;10.30;70.50;;;;;;10384842;28;20115;-64
2022/02/17 16:42:05;;;;;;;4.70;0.55;;;10.20;69.70;;;;;;10384788;28;20050;-63
2022/02/17 16:47:12;;;;;;;12.13;0.52;;;10.10;71.10;;;;;;10383286;28;20045;-63
2022/02/17 16:52:16;;;;;;;6.45;0.45;;;10.20;71.10;;;;;;10391005;28;20489;-63
2022/02/17 16:57:18;;;;;;;3.53;0.63;;;9.90;74.80;;;;;;10388801;28;20114;-63
2022/02/17 17:02:21;;;;;;;10.15;1.08;;;9.80;75.10;;;;;;10381425;28;20060;-62
2022/02/17 17:07:23;;;;;;;3.63;0.55;;;9.70;76.10;;;;;;10382920;28;20544;-63
2022/02/17 17:12:26;;;;;;;5.45;0.52;;;9.60;78.80;;;;;;10386161;28;20048;-63
2022/02/17 17:17:28;;;;;;;5.75;0.30;;;9.50;79.50;;;;;;10384808;28;20080;-63
2022/02/17 17:22:32;;;;;;;4.20;0.32;;;9.30;82.50;;;;;;10382911;28;20561;-62
2022/02/17 17:27:34;;;;;;;2.47;0.68;;;9.30;82.40;;;;;;10379957;28;20060;-62
2022/02/17 17:32:35;;;;;;;4.97;0.28;;;9.20;82.00;;;;;;10379893;28;20408;-62
2022/02/17 17:37:38;;;;;;;4.28;0.50;;;9.30;79.10;;;;;;10381927;28;20139;-63
2022/02/17 17:42:41;;;;;;;7.75;1.17;;;9.40;76.70;;;;;;10384444;28;20045;-63
2022/02/17 17:47:44;;;;;;;9.60;0.90;;;9.50;75.20;;;;;;10383639;28;20045;-62
2022/02/17 17:52:46;;;;;;;8.23;0.82;;;9.60;72.10;;;;;;10381293;28;20124;-62
2022/02/17 17:57:48;;;;;;;6.18;0.70;;;9.60;71.30;;;;;;10383102;28;20049;-62
2022/02/17 18:02:51;;;;;;;12.57;0.68;;;9.70;70.30;;;;;;10384671;28;20069;-62
2022/02/17 18:07:54;;;;;;;4.35;0.60;;;9.80;69.30;;;;;;10384087;28;20064;-62
2022/02/17 18:12:58;;;;;;;5.00;0.60;;;9.80;69.10;;;;;;10380799;28;20049;-62
2022/02/17 18:18:02;;;;;;;5.53;0.80;;;9.90;68.20;;;;;;10382831;28;20493;-62
2022/02/17 18:23:04;;;;;;;5.40;1.17;;;9.90;68.20;;;;;;10377457;28;20476;-62
2022/02/17 18:28:08;;;;;;;4.05;0.65;;;10.00;67.90;;;;;;10378087;28;20108;-62
2022/02/17 18:33:10;;;;;;;10.98;1.35;;;9.80;70.00;;;;;;10371429;28;20463;-62
2022/02/17 18:38:12;;;;;;;6.15;0.60;;;9.70;71.00;;;;;;10383728;28;20065;-62
2022/02/17 18:43:14;;;;;;;1.63;0.30;;;9.60;72.00;;;;;;10380296;28;20045;-62
2022/02/17 18:48:16;;;;;;;5.70;0.80;;;9.80;70.70;;;;;;10378553;28;20099;-63
2022/02/17 18:53:17;;;;;;;7.53;0.82;;;9.70;71.50;;;;;;10390081;28;20065;-63
2022/02/17 18:58:23;;;;;;;8.23;0.60;;;9.70;70.60;;;;;;10386754;28;20060;-63
2022/02/17 19:03:25;;;;;;;7.35;0.85;;;9.60;70.60;;;;;;10384563;28;20061;-63
2022/02/17 19:08:34;;;;;;;7.53;0.57;;;9.60;69.50;;;;;;10378110;28;20049;-60
2022/02/17 19:13:36;;;;;;;3.80;0.60;;;9.60;66.80;;;;;;10389555;28;20405;-64
2022/02/17 19:18:37;;;;;;;5.25;0.68;;;9.60;65.30;;;;;;10389250;28;20074;-62
2022/02/17 19:23:39;;;;;;;3.20;0.70;;;9.50;65.90;;;;;;10397699;28;20166;-67
2022/02/17 19:28:42;;;;;;;5.50;1.02;;;9.50;64.40;;;;;;10386063;28;20491;-63
2022/02/17 19:33:44;;;;;;;4.85;0.50;;;9.40;66.20;;;;;;10385221;28;20474;-63
2022/02/17 19:38:46;;;;;;;2.55;0.30;;;9.40;64.10;;;;;;10393555;28;20488;-63
2022/02/17 19:43:50;;;;;;;3.63;0.40;;;9.40;64.00;;;;;;10382786;28;20553;-63
2022/02/17 19:48:51;;;;;;;5.03;0.20;;;9.40;64.10;;;;;;10386878;28;20132;-62
2022/02/17 19:53:54;;;;;;;4.00;0.30;;;9.30;65.30;;;;;;10394436;28;20160;-62
2022/02/17 19:58:56;;;;;;;4.43;0.77;;;9.30;65.70;;;;;;10388623;28;20057;-62
2022/02/17 20:03:57;;;;;;;5.22;0.30;;;9.20;66.40;;;;;;10384060;28;20140;-62
2022/02/17 20:08:59;;;;;;;6.28;0.55;;;9.10;67.40;;;;;;10382769;28;20144;-63
2022/02/17 20:14:01;;;;;;;4.95;0.30;;;9.00;68.40;;;;;;10388364;28;20061;-63
2022/02/17 20:19:04;;;;;;;5.18;0.65;;;8.90;69.50;;;;;;10388976;28;20447;-61
2022/02/17 20:24:06;;;;;;;5.38;0.40;;;8.80;70.20;;;;;;10385182;28;20463;-63
2022/02/17 20:29:09;;;;;;;5.82;0.50;;;8.60;71.10;;;;;;10380657;28;20622;-63
2022/02/17 20:34:11;;;;;;;4.38;1.00;;;8.50;72.00;;;;;;10391502;28;20077;-63
2022/02/17 20:39:13;;;;;;;5.15;0.40;;;8.30;72.70;;;;;;10383850;28;20115;-63
2022/02/17 20:54:55;;;;;;;3.72;0.50;;;8.20;75.10;;;;;;10387598;28;20060;-62
2022/02/17 20:59:57;;;;;;;3.22;0.73;;;8.20;75.40;;;;;;10386403;28;22556;-62
2022/02/17 21:05:23;;;;;;;4.47;0.40;;;8.10;75.70;;;;;;10401554;28;20049;-62
2022/02/17 21:10:25;;;;;;;7.18;0.85;;;8.10;76.60;;;;;;10380903;28;20139;-63
2022/02/17 21:15:26;;;;;;;11.10;0.40;;;8.20;76.70;;;;;;10384553;28;20107;-62
2022/02/17 21:20:28;;;;;;;3.25;0.32;;;8.40;72.60;;;;;;10384152;28;20504;-62
2022/02/17 21:25:30;;;;;;;2.58;0.40;;;8.40;73.40;;;;;;10382868;28;20107;-62
2022/02/17 21:30:34;;;;;;;2.90;0.17;;;8.30;72.00;;;;;;10382175;28;20103;-63
2022/02/17 21:35:35;;;;;;;3.30;0.20;;;8.30;70.30;;;;;;10380207;28;20119;-63
2022/02/17 21:40:37;;;;;;;4.63;0.20;;;8.30;71.00;;;;;;10382736;28;20072;-63
2022/02/17 21:45:41;;;;;;;7.40;0.30;;;8.30;70.90;;;;;;10380644;28;20178;-63
2022/02/17 21:50:44;;;;;;;2.42;0.20;;;8.40;67.10;;;;;;10381687;28;20126;-62
2022/02/17 21:55:46;;;;;;;3.28;0.20;;;8.70;65.80;;;;;;10379352;28;20171;-62
2022/02/17 22:00:48;;;;;;;0.82;0.20;;;8.70;66.00;;;;;;10379451;28;20421;-62
2022/02/17 22:05:50;;;;;;;2.53;0.50;;;8.70;67.00;;;;;;10381723;28;20057;-62
2022/02/17 22:10:52;;;;;;;4.03;0.30;;;8.60;67.50;;;;;;10379793;28;20046;-62
2022/02/17 22:15:54;;;;;;;1.85;0.40;;;8.60;68.00;;;;;;10382985;28;20064;-62
2022/02/17 22:20:55;;;;;;;2.80;0.60;;;8.50;69.60;;;;;;10380921;28;20053;-63
2022/02/17 22:26:00;;;;;;;3.53;0.30;;;8.50;70.90;;;;;;10382965;28;20060;-63
2022/02/17 22:31:01;;;;;;;1.23;0.25;;;8.40;72.30;;;;;;10395595;28;20428;-62
2022/02/17 22:36:04;;;;;;;3.13;0.20;;;8.40;72.90;;;;;;10394045;28;20568;-62
2022/02/17 22:41:06;;;;;;;4.55;0.70;;;8.30;75.70;;;;;;10389990;28;20076;-62
2022/02/17 22:46:07;;;;;;;7.57;0.45;;;8.30;76.50;;;;;;10401134;28;20048;-62
2022/02/17 22:51:09;;;;;;;7.93;0.90;;;8.30;77.20;;;;;;10389283;28;20041;-62
2022/02/17 22:56:11;;;;;;;3.10;0.50;;;8.30;78.90;;;;;;10382240;28;20504;-63
2022/02/17 23:01:13;;;;;;;11.90;1.77;;;8.30;79.40;;;;;;10388444;28;20053;-62
2022/02/17 23:06:15;;;;;;;4.55;0.32;;;8.30;78.80;;;;;;10386512;28;20397;-62
2022/02/17 23:11:16;;;;;;;5.25;0.57;;;8.30;76.30;;;;;;10386554;28;20504;-62
2022/02/17 23:21:38;;;;;;;6.68;1.70;;;8.30;77.00;;;;;;10388971;28;20099;-62
2022/02/17 23:26:40;;;;;;;6.85;0.50;;;8.30;78.00;;;;;;10392755;28;20084;-63
2022/02/17 23:31:42;;;;;;;13.27;0.95;;;8.30;78.90;;;;;;10385131;28;20076;-62
2022/02/17 23:36:44;;;;;;;2.30;0.30;;;8.30;79.40;;;;;;10383658;28;20370;-62
2022/02/17 23:41:45;;;;;;;7.32;0.38;;;8.30;80.40;;;;;;10386392;28;20096;-62
2022/02/17 23:46:47;;;;;;;7.25;0.70;;;8.30;81.00;;;;;;10389794;28;20061;-62
2022/02/17 23:51:49;;;;;;;6.50;0.47;;;8.30;81.70;;;;;;10389108;28;20041;-62
2022/02/17 23:56:51;;;;;;;6.82;0.60;;;8.20;82.10;;;;;;10392781;28;20503;-62
